Time;durP1;ratioP1;P1;durP2;ratioP2;P2;SDS_P1;SDS_P2;PMS_P1;PMS_P2;Temp;Humidity;BMP_temperature;BMP_pressure;BME280_temperature;BME280_humidity;BME280_pressure;Samples;Min_cycle;Max_cycle;Signal;HPM_P1;HPM_P2
2023/09/29 00:02:04;;;;;;;4.20;2.45;;;;;;;;;;5048713;28;20052;-66
2023/09/29 00:04:29;;;;;;;5.07;2.67;;;;;;;;;;5048693;28;20012;-66
2023/09/29 00:06:55;;;;;;;4.13;2.60;;;;;;;;;;5050853;28;20327;-65
2023/09/29 00:09:20;;;;;;;3.80;2.53;;;;;;;;;;5048175;28;20392;-66
2023/09/29 00:11:47;;;;;;;9.77;2.83;;;;;;;;;;5049980;28;20031;-66
2023/09/29 00:14:13;;;;;;;4.68;2.63;;;;;;;;;;5048670;28;20489;-66
2023/09/29 00:16:39;;;;;;;4.45;2.83;;;;;;;;;;5036675;28;20028;-65
2023/09/29 00:19:04;;;;;;;3.70;2.33;;;;;;;;;;5047079;28;20028;-66
2023/09/29 00:21:29;;;;;;;7.45;3.35;;;;;;;;;;5047503;28;20131;-66
2023/09/29 00:23:55;;;;;;;7.60;2.88;;;;;;;;;;5048013;28;20942;-66
2023/09/29 00:26:20;;;;;;;4.50;2.55;;;;;;;;;;5049287;28;20024;-66
2023/09/29 00:28:45;;;;;;;7.05;2.65;;;;;;;;;;5046204;28;20869;-66
2023/09/29 00:31:11;;;;;;;6.70;2.50;;;;;;;;;;5048921;28;20890;-66
2023/09/29 00:33:36;;;;;;;4.47;2.78;;;;;;;;;;5048230;28;20024;-66
2023/09/29 00:36:01;;;;;;;5.53;2.90;;;;;;;;;;5047939;28;20028;-66
2023/09/29 00:38:26;;;;;;;3.93;2.40;;;;;;;;;;5036904;28;20032;-66
2023/09/29 00:40:52;;;;;;;4.93;2.40;;;;;;;;;;5036136;28;21206;-66
2023/09/29 00:43:17;;;;;;;3.85;2.13;;;;;;;;;;5051556;28;20288;-66
2023/09/29 00:45:43;;;;;;;6.23;2.87;;;;;;;;;;5048986;28;20486;-66
2023/09/29 00:48:10;;;;;;;6.00;2.58;;;;;;;;;;5046828;28;20322;-66
2023/09/29 00:50:36;;;;;;;3.55;2.42;;;;;;;;;;5042608;28;20028;-66
2023/09/29 00:53:07;;;;;;;3.80;2.35;;;;;;;;;;5043127;28;20986;-66
2023/09/29 00:55:35;;;;;;;4.78;2.53;;;;;;;;;;5047603;28;20139;-66
2023/09/29 00:58:02;;;;;;;3.97;2.35;;;;;;;;;;5047876;28;20031;-65
2023/09/29 01:02:53;;;;;;;7.93;2.72;;;;;;;;;;5038482;28;20028;-66
2023/09/29 01:05:19;;;;;;;4.68;2.90;;;;;;;;;;5048464;28;20035;-66
2023/09/29 01:07:46;;;;;;;5.50;3.00;;;;;;;;;;5046422;28;20043;-66
2023/09/29 01:10:11;;;;;;;5.10;2.65;;;;;;;;;;5047924;28;20066;-66
2023/09/29 01:12:37;;;;;;;5.05;2.63;;;;;;;;;;5047914;28;20793;-66
2023/09/29 01:15:03;;;;;;;5.95;3.30;;;;;;;;;;5045907;28;20025;-66
2023/09/29 01:17:28;;;;;;;5.53;3.17;;;;;;;;;;5044749;28;20032;-66
2023/09/29 01:19:54;;;;;;;3.97;2.40;;;;;;;;;;5048566;28;20931;-65
2023/09/29 01:22:19;;;;;;;3.72;2.45;;;;;;;;;;5049380;28;20042;-66
2023/09/29 01:24:45;;;;;;;6.88;3.00;;;;;;;;;;5049658;28;20027;-66
2023/09/29 01:27:10;;;;;;;4.75;2.85;;;;;;;;;;5049711;28;20039;-66
2023/09/29 01:29:36;;;;;;;7.72;2.58;;;;;;;;;;5047451;28;20627;-66
2023/09/29 01:32:01;;;;;;;3.95;2.80;;;;;;;;;;5048672;28;20082;-67
2023/09/29 01:34:30;;;;;;;5.20;2.93;;;;;;;;;;5052281;28;20031;-67
2023/09/29 01:36:57;;;;;;;4.18;2.72;;;;;;;;;;5050208;28;20282;-67
2023/09/29 01:39:22;;;;;;;5.72;2.78;;;;;;;;;;5045983;28;20179;-67
2023/09/29 01:41:47;;;;;;;4.57;2.63;;;;;;;;;;5039546;28;21033;-66
2023/09/29 01:44:13;;;;;;;4.15;2.88;;;;;;;;;;5056370;28;20032;-65
2023/09/29 01:46:39;;;;;;;6.00;2.80;;;;;;;;;;5047894;28;20131;-65
2023/09/29 01:49:06;;;;;;;6.40;2.55;;;;;;;;;;5048616;28;20121;-65
2023/09/29 01:51:31;;;;;;;3.25;2.45;;;;;;;;;;5037360;28;20178;-65
2023/09/29 01:53:57;;;;;;;5.57;2.85;;;;;;;;;;5049371;28;20832;-67
2023/09/29 01:56:23;;;;;;;5.00;2.70;;;;;;;;;;5050892;28;20024;-65
2023/09/29 01:58:48;;;;;;;4.00;2.65;;;;;;;;;;5056061;28;20909;-65
2023/09/29 02:01:14;;;;;;;6.57;2.95;;;;;;;;;;5048215;28;20463;-65
2023/09/29 02:03:40;;;;;;;6.50;2.65;;;;;;;;;;5050458;28;20028;-67
2023/09/29 02:06:06;;;;;;;5.72;2.70;;;;;;;;;;5049860;28;20093;-67
2023/09/29 02:08:31;;;;;;;4.65;2.13;;;;;;;;;;5048092;28;20912;-67
2023/09/29 02:10:56;;;;;;;5.37;2.77;;;;;;;;;;5048684;28;20630;-67
2023/09/29 02:13:21;;;;;;;3.93;2.50;;;;;;;;;;5047302;28;21260;-67
2023/09/29 02:15:46;;;;;;;4.40;2.43;;;;;;;;;;5046750;28;20254;-68
2023/09/29 02:18:12;;;;;;;4.80;2.33;;;;;;;;;;5053919;28;20758;-67
2023/09/29 02:20:41;;;;;;;3.38;2.08;;;;;;;;;;5047977;28;21169;-66
2023/09/29 02:23:07;;;;;;;6.65;2.38;;;;;;;;;;5046265;28;20998;-66
2023/09/29 02:25:32;;;;;;;5.07;2.20;;;;;;;;;;5050923;28;20032;-66
2023/09/29 02:27:59;;;;;;;4.63;2.20;;;;;;;;;;5052366;28;20032;-67
2023/09/29 02:30:24;;;;;;;4.07;2.38;;;;;;;;;;5049833;28;20073;-67
2023/09/29 02:32:52;;;;;;;5.88;2.28;;;;;;;;;;5054005;28;20066;-67
2023/09/29 02:35:17;;;;;;;5.00;2.42;;;;;;;;;;5049427;28;20032;-67
2023/09/29 02:37:43;;;;;;;3.97;2.30;;;;;;;;;;5042795;28;20075;-67
2023/09/29 02:40:11;;;;;;;5.57;2.60;;;;;;;;;;5044883;28;20020;-67
2023/09/29 02:42:37;;;;;;;5.63;2.35;;;;;;;;;;5041505;28;20027;-68
2023/09/29 02:45:02;;;;;;;4.32;2.72;;;;;;;;;;5046829;28;20898;-67
2023/09/29 02:47:28;;;;;;;6.75;2.40;;;;;;;;;;5051871;28;20023;-67
2023/09/29 02:49:53;;;;;;;3.97;2.77;;;;;;;;;;5050603;28;20024;-66
2023/09/29 02:52:20;;;;;;;6.05;2.38;;;;;;;;;;5046211;28;20279;-66
2023/09/29 02:54:45;;;;;;;3.50;2.63;;;;;;;;;;5051931;28;20054;-66
2023/09/29 02:57:10;;;;;;;6.17;2.53;;;;;;;;;;5039390;28;20821;-67
2023/09/29 02:59:37;;;;;;;7.43;2.78;;;;;;;;;;5040803;28;20293;-67
2023/09/29 03:02:03;;;;;;;3.67;2.25;;;;;;;;;;5049789;28;20024;-64
2023/09/29 03:04:28;;;;;;;4.20;2.40;;;;;;;;;;5049478;28;20732;-65
2023/09/29 03:06:54;;;;;;;4.57;2.95;;;;;;;;;;5040880;28;20028;-65
2023/09/29 03:09:19;;;;;;;4.30;2.63;;;;;;;;;;5051597;28;20139;-64
2023/09/29 03:11:45;;;;;;;4.50;2.97;;;;;;;;;;5053983;28;20058;-65
2023/09/29 03:14:11;;;;;;;4.40;2.67;;;;;;;;;;5050657;28;20020;-65
2023/09/29 03:16:37;;;;;;;6.22;2.55;;;;;;;;;;5049874;28;20121;-65
2023/09/29 03:19:02;;;;;;;4.05;2.58;;;;;;;;;;5047336;28;20043;-65
2023/09/29 03:21:28;;;;;;;5.15;2.60;;;;;;;;;;5052219;28;20063;-65
2023/09/29 03:23:53;;;;;;;5.50;2.35;;;;;;;;;;5049925;28;20039;-65
2023/09/29 03:26:22;;;;;;;4.18;2.65;;;;;;;;;;5040130;28;20039;-65
2023/09/29 03:28:47;;;;;;;3.80;2.50;;;;;;;;;;5040217;28;20024;-66
2023/09/29 03:31:12;;;;;;;5.20;2.47;;;;;;;;;;5037331;28;20083;-64
2023/09/29 03:33:38;;;;;;;3.97;2.23;;;;;;;;;;5051418;28;20839;-65
2023/09/29 03:36:03;;;;;;;4.30;2.30;;;;;;;;;;5049004;28;20263;-64
2023/09/29 03:38:29;;;;;;;6.10;2.58;;;;;;;;;;5043728;28;20025;-64
2023/09/29 03:40:56;;;;;;;4.30;2.30;;;;;;;;;;5051328;28;20147;-65
2023/09/29 03:43:24;;;;;;;5.80;3.00;;;;;;;;;;5040603;28;20184;-64
2023/09/29 03:45:50;;;;;;;5.43;2.35;;;;;;;;;;5055083;28;20032;-64
2023/09/29 03:48:16;;;;;;;3.35;2.25;;;;;;;;;;5041787;28;20020;-65
2023/09/29 03:50:41;;;;;;;4.78;2.50;;;;;;;;;;5050061;28;20866;-65
2023/09/29 03:53:06;;;;;;;4.55;2.50;;;;;;;;;;5048065;28;20030;-64
2023/09/29 03:55:32;;;;;;;4.18;2.50;;;;;;;;;;5052620;28;21121;-65
2023/09/29 03:57:57;;;;;;;3.72;2.35;;;;;;;;;;5042220;28;20068;-65
2023/09/29 04:00:22;;;;;;;4.45;2.47;;;;;;;;;;5043777;28;21009;-65
2023/09/29 04:02:50;;;;;;;4.77;2.37;;;;;;;;;;5052684;28;20799;-65
2023/09/29 04:05:17;;;;;;;3.95;2.22;;;;;;;;;;5052089;28;20373;-65
2023/09/29 04:07:42;;;;;;;3.88;2.20;;;;;;;;;;5050889;28;20028;-65
2023/09/29 04:10:08;;;;;;;4.70;2.35;;;;;;;;;;5052174;28;20024;-65
2023/09/29 04:12:34;;;;;;;4.70;2.17;;;;;;;;;;5050515;28;20105;-65
2023/09/29 04:14:59;;;;;;;4.05;2.08;;;;;;;;;;5062668;28;20024;-64
2023/09/29 04:17:24;;;;;;;5.28;2.50;;;;;;;;;;5049519;28;20020;-64
2023/09/29 04:19:50;;;;;;;3.10;2.30;;;;;;;;;;5044701;28;20809;-64
2023/09/29 04:22:16;;;;;;;6.80;2.73;;;;;;;;;;5045015;28;20297;-64
2023/09/29 04:24:42;;;;;;;3.63;2.25;;;;;;;;;;5048646;28;20278;-65
2023/09/29 04:27:07;;;;;;;4.35;2.20;;;;;;;;;;5050553;28;20028;-65
2023/09/29 04:29:32;;;;;;;3.47;2.30;;;;;;;;;;5048767;28;20796;-65
2023/09/29 04:31:57;;;;;;;4.13;2.55;;;;;;;;;;5041458;28;20905;-65
2023/09/29 04:34:23;;;;;;;4.40;2.00;;;;;;;;;;5050069;28;20035;-65
2023/09/29 04:36:48;;;;;;;7.23;3.07;;;;;;;;;;5052534;28;20266;-65
2023/09/29 04:39:15;;;;;;;4.47;2.33;;;;;;;;;;5036735;28;21224;-65
2023/09/29 04:41:40;;;;;;;4.30;2.70;;;;;;;;;;5043220;28;20293;-65
2023/09/29 04:44:05;;;;;;;5.07;2.80;;;;;;;;;;5038273;28;20131;-65
2023/09/29 04:46:32;;;;;;;3.42;2.13;;;;;;;;;;5054499;28;20898;-65
2023/09/29 04:48:58;;;;;;;4.72;2.97;;;;;;;;;;5050487;28;20056;-68
2023/09/29 04:51:23;;;;;;;6.55;2.70;;;;;;;;;;5046160;28;20030;-65
2023/09/29 04:53:48;;;;;;;5.90;2.53;;;;;;;;;;5041480;28;20040;-65
2023/09/29 04:56:14;;;;;;;3.67;2.40;;;;;;;;;;5038976;28;20024;-66
2023/09/29 04:58:39;;;;;;;4.73;2.47;;;;;;;;;;5039218;28;20270;-66
2023/09/29 05:01:04;;;;;;;3.90;2.43;;;;;;;;;;5043241;28;20333;-66
2023/09/29 05:03:29;;;;;;;5.60;2.60;;;;;;;;;;5045794;28;20025;-66
2023/09/29 05:05:55;;;;;;;3.80;2.47;;;;;;;;;;5044370;28;20274;-66
2023/09/29 05:08:20;;;;;;;4.38;2.65;;;;;;;;;;5036171;28;20326;-66
2023/09/29 05:10:45;;;;;;;6.27;2.57;;;;;;;;;;5041654;28;20813;-66
2023/09/29 05:13:11;;;;;;;4.47;2.33;;;;;;;;;;5049572;28;20278;-67
2023/09/29 05:15:36;;;;;;;5.28;2.53;;;;;;;;;;5045215;28;20269;-66
2023/09/29 05:18:02;;;;;;;5.25;2.40;;;;;;;;;;5042133;28;20024;-66
2023/09/29 05:20:27;;;;;;;4.95;2.50;;;;;;;;;;5051244;28;20383;-67
2023/09/29 05:22:53;;;;;;;4.83;2.10;;;;;;;;;;5046250;28;20032;-66
2023/09/29 05:25:18;;;;;;;7.28;2.38;;;;;;;;;;5045908;28;20328;-67
2023/09/29 05:27:43;;;;;;;3.67;2.00;;;;;;;;;;5041646;28;20916;-67
2023/09/29 05:30:09;;;;;;;8.63;2.45;;;;;;;;;;5036573;28;21175;-66
2023/09/29 05:32:34;;;;;;;5.80;2.47;;;;;;;;;;5047796;28;20130;-66
2023/09/29 05:34:59;;;;;;;5.57;2.13;;;;;;;;;;5044123;28;20391;-65
2023/09/29 05:37:25;;;;;;;6.45;2.50;;;;;;;;;;5044812;28;20023;-63
2023/09/29 05:39:50;;;;;;;4.10;2.17;;;;;;;;;;5051248;28;20023;-65
2023/09/29 05:42:15;;;;;;;6.22;2.28;;;;;;;;;;5048267;28;20024;-70
2023/09/29 05:44:40;;;;;;;3.05;2.03;;;;;;;;;;5038819;28;20021;-65
2023/09/29 05:47:06;;;;;;;3.10;2.00;;;;;;;;;;5043512;28;20035;-65
2023/09/29 05:49:32;;;;;;;4.95;2.53;;;;;;;;;;5048020;28;20028;-65
2023/09/29 05:51:57;;;;;;;4.60;2.08;;;;;;;;;;5042248;28;20032;-66
2023/09/29 05:54:22;;;;;;;3.83;2.20;;;;;;;;;;5036502;28;20938;-66
2023/09/29 05:56:49;;;;;;;6.03;2.20;;;;;;;;;;5044690;28;20369;-66
2023/09/29 05:59:14;;;;;;;3.50;2.30;;;;;;;;;;5034416;28;20294;-65
2023/09/29 06:01:39;;;;;;;3.28;2.13;;;;;;;;;;5046350;28;20055;-66
2023/09/29 06:04:05;;;;;;;4.20;2.00;;;;;;;;;;5036915;28;20047;-66
2023/09/29 06:06:30;;;;;;;3.90;2.20;;;;;;;;;;5046067;28;21142;-65
2023/09/29 06:08:55;;;;;;;3.92;2.30;;;;;;;;;;5048505;28;20378;-65
2023/09/29 06:11:21;;;;;;;5.50;2.07;;;;;;;;;;5039679;28;20074;-65
2023/09/29 06:13:46;;;;;;;3.25;2.08;;;;;;;;;;5047903;28;20274;-65
2023/09/29 06:16:12;;;;;;;6.03;2.42;;;;;;;;;;5043267;28;20032;-65
2023/09/29 06:18:37;;;;;;;3.53;1.97;;;;;;;;;;5046147;28;20471;-65
2023/09/29 06:21:03;;;;;;;7.60;2.35;;;;;;;;;;5048337;28;21101;-65
2023/09/29 06:23:28;;;;;;;3.72;2.22;;;;;;;;;;5051697;28;20024;-65
2023/09/29 06:25:57;;;;;;;4.15;2.25;;;;;;;;;;5039133;28;20529;-66
2023/09/29 06:28:22;;;;;;;4.50;2.25;;;;;;;;;;5047886;28;20370;-65
2023/09/29 06:30:48;;;;;;;3.87;2.03;;;;;;;;;;5048206;28;20541;-65
2023/09/29 06:33:13;;;;;;;5.55;2.30;;;;;;;;;;5047634;28;21061;-65
2023/09/29 06:35:40;;;;;;;3.50;2.20;;;;;;;;;;5044065;28;20059;-65
2023/09/29 06:38:06;;;;;;;4.50;2.00;;;;;;;;;;5044635;28;20077;-65
2023/09/29 06:40:31;;;;;;;4.00;2.20;;;;;;;;;;5038586;28;20873;-65
2023/09/29 06:42:56;;;;;;;5.27;2.47;;;;;;;;;;5040240;28;21221;-65
2023/09/29 06:45:22;;;;;;;4.57;2.20;;;;;;;;;;5043923;28;21183;-65
2023/09/29 06:47:47;;;;;;;4.85;2.50;;;;;;;;;;5083951;28;20044;-65
2023/09/29 06:50:12;;;;;;;5.33;2.40;;;;;;;;;;5090666;28;20072;-65
2023/09/29 06:52:38;;;;;;;3.87;2.07;;;;;;;;;;5067818;28;20281;-66
2023/09/29 06:55:05;;;;;;;3.58;2.08;;;;;;;;;;5086869;28;20262;-66
2023/09/29 06:57:33;;;;;;;4.10;2.00;;;;;;;;;;5088630;28;20037;-72
2023/09/29 06:59:59;;;;;;;4.60;2.00;;;;;;;;;;5080169;28;20039;-66
2023/09/29 07:02:24;;;;;;;3.67;2.10;;;;;;;;;;5057613;28;20123;-65
2023/09/29 07:04:49;;;;;;;3.67;1.70;;;;;;;;;;5090065;28;20099;-65
2023/09/29 07:07:15;;;;;;;3.47;2.15;;;;;;;;;;5086336;28;20354;-65
2023/09/29 07:09:41;;;;;;;4.03;2.10;;;;;;;;;;5074431;28;20028;-65
2023/09/29 07:12:07;;;;;;;4.65;2.20;;;;;;;;;;5049586;28;20019;-65
2023/09/29 07:14:32;;;;;;;5.00;2.20;;;;;;;;;;5044211;28;20124;-66
2023/09/29 07:16:57;;;;;;;4.90;2.03;;;;;;;;;;5047215;28;20330;-66
2023/09/29 07:19:22;;;;;;;6.27;2.23;;;;;;;;;;5063020;28;20064;-65
2023/09/29 07:21:48;;;;;;;3.85;1.92;;;;;;;;;;5059872;28;20416;-65
2023/09/29 07:24:13;;;;;;;3.33;1.93;;;;;;;;;;5043983;28;20134;-66
2023/09/29 07:26:38;;;;;;;4.60;2.40;;;;;;;;;;5049676;28;20293;-65
2023/09/29 07:29:04;;;;;;;5.07;2.17;;;;;;;;;;5039046;28;20376;-64
2023/09/29 07:31:36;;;;;;;5.00;1.80;;;;;;;;;;5051953;28;20188;-64
2023/09/29 07:34:02;;;;;;;4.85;2.60;;;;;;;;;;5053709;28;20028;-65
2023/09/29 07:36:30;;;;;;;5.15;2.30;;;;;;;;;;5091453;28;20114;-66
2023/09/29 07:38:55;;;;;;;3.65;2.05;;;;;;;;;;5055479;28;20047;-66
2023/09/29 07:41:21;;;;;;;5.97;2.30;;;;;;;;;;5086559;28;20528;-65
2023/09/29 07:43:46;;;;;;;6.50;2.20;;;;;;;;;;5052965;28;20851;-65
2023/09/29 07:46:11;;;;;;;4.18;2.08;;;;;;;;;;5055104;28;21028;-66
2023/09/29 07:48:36;;;;;;;4.07;2.30;;;;;;;;;;5080702;28;20024;-65
2023/09/29 07:51:02;;;;;;;4.85;2.22;;;;;;;;;;5086301;28;20284;-65
2023/09/29 07:53:27;;;;;;;4.03;1.90;;;;;;;;;;5042939;28;20903;-66
2023/09/29 07:55:52;;;;;;;4.87;2.30;;;;;;;;;;5050688;28;20858;-66
2023/09/29 07:58:18;;;;;;;4.75;1.95;;;;;;;;;;5037434;28;20865;-66
2023/09/29 08:00:43;;;;;;;4.50;2.13;;;;;;;;;;5051518;28;20036;-66
2023/09/29 08:03:09;;;;;;;5.95;2.38;;;;;;;;;;5073633;28;20356;-66
2023/09/29 08:05:34;;;;;;;5.05;1.85;;;;;;;;;;5036207;28;20060;-68
2023/09/29 08:07:59;;;;;;;4.37;2.13;;;;;;;;;;5048885;28;20131;-66
2023/09/29 08:10:24;;;;;;;3.30;1.87;;;;;;;;;;5052545;28;20270;-66
2023/09/29 08:12:52;;;;;;;3.70;2.37;;;;;;;;;;5055002;28;20058;-66
2023/09/29 08:15:17;;;;;;;4.60;1.83;;;;;;;;;;5046943;28;20266;-66
2023/09/29 08:17:44;;;;;;;3.72;1.98;;;;;;;;;;5037913;28;20024;-65
2023/09/29 08:20:09;;;;;;;8.77;2.30;;;;;;;;;;5047687;28;20028;-65
2023/09/29 08:22:34;;;;;;;8.05;2.10;;;;;;;;;;5043173;28;20039;-65
2023/09/29 08:25:03;;;;;;;5.82;2.35;;;;;;;;;;5044360;28;20545;-66
2023/09/29 08:27:28;;;;;;;4.78;2.10;;;;;;;;;;5048627;28;20409;-65
2023/09/29 08:29:53;;;;;;;4.03;2.17;;;;;;;;;;5030161;28;20510;-65
2023/09/29 08:32:19;;;;;;;9.27;1.90;;;;;;;;;;5047684;28;20176;-65
2023/09/29 08:34:44;;;;;;;5.13;2.00;;;;;;;;;;5062277;28;20822;-66
2023/09/29 08:37:11;;;;;;;4.75;2.45;;;;;;;;;;5049611;28;20028;-65
2023/09/29 08:39:36;;;;;;;12.52;2.30;;;;;;;;;;5038518;28;20036;-65
2023/09/29 08:42:08;;;;;;;5.75;2.22;;;;;;;;;;5044694;28;20090;-65
2023/09/29 08:44:34;;;;;;;7.47;2.72;;;;;;;;;;5037358;28;20751;-65
2023/09/29 08:47:01;;;;;;;6.20;2.72;;;;;;;;;;5046711;28;20089;-65
2023/09/29 08:49:26;;;;;;;5.38;2.50;;;;;;;;;;5049269;28;20055;-65
2023/09/29 08:51:52;;;;;;;6.18;2.30;;;;;;;;;;5051351;28;20129;-64
2023/09/29 08:54:19;;;;;;;6.10;2.65;;;;;;;;;;5028987;28;20849;-65
2023/09/29 08:56:46;;;;;;;5.53;2.60;;;;;;;;;;5062709;28;20020;-64
2023/09/29 08:59:11;;;;;;;7.03;2.80;;;;;;;;;;5042333;28;20051;-64
2023/09/29 09:01:37;;;;;;;5.73;2.33;;;;;;;;;;5046007;28;20020;-64
2023/09/29 09:04:02;;;;;;;6.30;2.85;;;;;;;;;;5048006;28;20278;-65
2023/09/29 09:06:30;;;;;;;6.50;2.65;;;;;;;;;;5057120;28;20618;-64
2023/09/29 09:08:56;;;;;;;10.00;2.80;;;;;;;;;;5047687;28;20024;-65
2023/09/29 09:11:23;;;;;;;7.45;3.08;;;;;;;;;;5048073;28;21412;-65
2023/09/29 09:13:58;;;;;;;7.97;3.03;;;;;;;;;;5047391;28;20855;-65
2023/09/29 09:16:24;;;;;;;6.45;2.75;;;;;;;;;;5058363;28;20116;-66
2023/09/29 09:18:50;;;;;;;6.43;2.90;;;;;;;;;;5045882;28;20024;-65
2023/09/29 09:21:15;;;;;;;9.63;2.78;;;;;;;;;;5067171;28;20856;-64
2023/09/29 09:23:40;;;;;;;5.00;2.90;;;;;;;;;;5053210;28;20024;-64
2023/09/29 09:26:14;;;;;;;7.50;3.17;;;;;;;;;;5038787;28;20036;-65
2023/09/29 09:28:39;;;;;;;8.05;2.85;;;;;;;;;;5040244;28;20834;-65
2023/09/29 09:31:04;;;;;;;11.13;3.10;;;;;;;;;;5069660;28;20050;-64
2023/09/29 09:33:31;;;;;;;7.50;2.93;;;;;;;;;;5064327;28;20286;-65
2023/09/29 09:36:11;;;;;;;6.72;3.42;;;;;;;;;;5061338;28;20316;-65
2023/09/29 09:38:37;;;;;;;8.43;4.00;;;;;;;;;;5038126;28;20114;-65
2023/09/29 09:41:02;;;;;;;7.10;3.63;;;;;;;;;;5046979;28;20876;-65
2023/09/29 09:43:35;;;;;;;7.90;3.25;;;;;;;;;;5063153;28;20464;-65
2023/09/29 09:46:03;;;;;;;7.50;3.55;;;;;;;;;;5039447;28;20025;-65
2023/09/29 09:48:35;;;;;;;7.38;3.45;;;;;;;;;;5046290;28;20038;-65
2023/09/29 09:51:02;;;;;;;9.10;3.50;;;;;;;;;;5048426;28;20043;-65
2023/09/29 09:53:30;;;;;;;7.70;3.60;;;;;;;;;;5037076;28;20036;-65
2023/09/29 09:56:01;;;;;;;11.55;3.67;;;;;;;;;;5047316;28;20032;-65
2023/09/29 09:58:27;;;;;;;6.82;3.67;;;;;;;;;;5045345;28;20036;-64
2023/09/29 10:00:56;;;;;;;7.55;3.42;;;;;;;;;;5045702;28;20036;-64
2023/09/29 10:03:23;;;;;;;8.07;3.97;;;;;;;;;;5046340;28;20031;-65
2023/09/29 10:05:52;;;;;;;9.43;3.50;;;;;;;;;;5047458;28;20024;-67
2023/09/29 10:08:30;;;;;;;10.23;3.53;;;;;;;;;;5047684;28;20028;-66
2023/09/29 10:11:06;;;;;;;7.22;3.72;;;;;;;;;;5056439;28;20032;-65
2023/09/29 10:13:37;;;;;;;14.88;3.55;;;;;;;;;;5041019;28;20060;-67
2023/09/29 10:16:05;;;;;;;8.45;3.15;;;;;;;;;;5047751;28;20482;-66
2023/09/29 10:18:32;;;;;;;6.78;3.13;;;;;;;;;;5046599;28;20119;-65
2023/09/29 10:21:04;;;;;;;9.90;3.30;;;;;;;;;;5053988;28;20035;-66
2023/09/29 10:23:30;;;;;;;8.32;3.72;;;;;;;;;;5046626;28;20031;-64
2023/09/29 10:25:59;;;;;;;9.27;3.47;;;;;;;;;;5042159;28;20025;-64
2023/09/29 10:28:31;;;;;;;7.47;3.42;;;;;;;;;;5047122;28;20020;-65
2023/09/29 10:31:05;;;;;;;8.82;3.15;;;;;;;;;;5049275;28;20064;-64
2023/09/29 10:33:31;;;;;;;7.97;3.13;;;;;;;;;;5047472;28;20024;-65
2023/09/29 10:35:56;;;;;;;10.93;3.40;;;;;;;;;;5045590;28;20866;-64
2023/09/29 10:38:25;;;;;;;8.10;3.63;;;;;;;;;;5045557;28;20035;-64
2023/09/29 10:40:52;;;;;;;6.30;3.20;;;;;;;;;;5050428;28;20296;-64
2023/09/29 10:43:18;;;;;;;9.10;3.55;;;;;;;;;;5053710;28;20128;-66
2023/09/29 10:45:44;;;;;;;7.18;3.35;;;;;;;;;;5047455;28;20803;-65
2023/09/29 10:48:10;;;;;;;7.18;2.65;;;;;;;;;;5051491;28;20020;-67
2023/09/29 10:50:38;;;;;;;7.47;2.95;;;;;;;;;;5051128;28;20125;-65
2023/09/29 10:53:04;;;;;;;9.20;3.33;;;;;;;;;;5042129;28;20032;-64
2023/09/29 10:55:30;;;;;;;9.18;3.95;;;;;;;;;;5054002;28;20874;-66
2023/09/29 10:57:58;;;;;;;8.10;3.40;;;;;;;;;;5050495;28;20027;-66
2023/09/29 11:00:24;;;;;;;8.48;3.17;;;;;;;;;;5049528;28;20143;-66
2023/09/29 11:02:49;;;;;;;7.80;3.03;;;;;;;;;;5050720;28;20024;-66
2023/09/29 11:05:15;;;;;;;6.60;2.78;;;;;;;;;;5050575;28;20760;-66
2023/09/29 11:07:48;;;;;;;6.37;2.50;;;;;;;;;;5047835;28;20024;-67
2023/09/29 11:10:14;;;;;;;7.95;2.60;;;;;;;;;;5047961;28;20324;-66
2023/09/29 11:12:43;;;;;;;7.10;2.70;;;;;;;;;;5054927;28;20823;-66
2023/09/29 11:15:08;;;;;;;8.23;3.13;;;;;;;;;;5051116;28;20028;-65
2023/09/29 11:17:44;;;;;;;5.95;2.40;;;;;;;;;;5058422;28;20062;-66
2023/09/29 11:20:26;;;;;;;6.05;2.60;;;;;;;;;;5043290;28;20036;-65
2023/09/29 11:23:06;;;;;;;10.07;2.78;;;;;;;;;;5049983;28;20077;-65
2023/09/29 11:25:31;;;;;;;9.85;3.33;;;;;;;;;;5048715;28;20020;-65
2023/09/29 11:27:56;;;;;;;6.43;2.80;;;;;;;;;;5036070;28;20035;-65
2023/09/29 11:30:24;;;;;;;6.33;2.63;;;;;;;;;;5049040;28;20293;-65
2023/09/29 11:32:50;;;;;;;8.80;2.88;;;;;;;;;;5045784;28;20274;-65
2023/09/29 11:35:16;;;;;;;7.47;2.80;;;;;;;;;;5049786;28;20024;-65
2023/09/29 11:37:42;;;;;;;6.85;2.80;;;;;;;;;;5053177;28;20090;-65
2023/09/29 11:40:11;;;;;;;4.15;2.30;;;;;;;;;;5017275;28;20786;-65
2023/09/29 11:42:37;;;;;;;5.70;2.33;;;;;;;;;;5049240;28;20081;-65
2023/09/29 11:45:08;;;;;;;10.35;2.35;;;;;;;;;;5047638;28;20040;-65
2023/09/29 11:47:33;;;;;;;5.97;2.22;;;;;;;;;;5051383;28;20849;-66
2023/09/29 11:49:58;;;;;;;4.70;2.17;;;;;;;;;;5065659;28;20039;-66
2023/09/29 11:52:24;;;;;;;5.85;2.20;;;;;;;;;;5048849;28;20020;-66
2023/09/29 11:54:49;;;;;;;5.07;2.13;;;;;;;;;;5042871;28;20131;-65
2023/09/29 11:57:14;;;;;;;6.20;2.60;;;;;;;;;;5053981;28;20031;-65
2023/09/29 11:59:40;;;;;;;5.65;2.30;;;;;;;;;;5036989;28;20024;-65
2023/09/29 12:02:05;;;;;;;5.38;2.53;;;;;;;;;;5050305;28;20113;-65
2023/09/29 12:04:30;;;;;;;4.47;1.75;;;;;;;;;;5050761;28;20046;-65
2023/09/29 12:06:55;;;;;;;5.13;2.28;;;;;;;;;;5045044;28;20032;-65
2023/09/29 12:09:22;;;;;;;7.22;2.35;;;;;;;;;;5049330;28;20114;-66
2023/09/29 12:11:47;;;;;;;5.35;2.25;;;;;;;;;;5069459;28;20021;-67
2023/09/29 12:14:13;;;;;;;4.80;2.47;;;;;;;;;;5049041;28;20858;-64
2023/09/29 12:16:38;;;;;;;6.32;1.80;;;;;;;;;;5048454;28;20037;-64
2023/09/29 12:19:04;;;;;;;7.28;2.47;;;;;;;;;;5040796;28;20024;-66
2023/09/29 12:21:30;;;;;;;5.50;2.50;;;;;;;;;;5047249;28;20031;-66
2023/09/29 12:23:56;;;;;;;5.78;2.42;;;;;;;;;;5040680;28;20024;-66
2023/09/29 12:26:21;;;;;;;4.97;2.10;;;;;;;;;;5078762;28;20020;-66
2023/09/29 12:28:47;;;;;;;6.28;2.40;;;;;;;;;;5049884;28;20873;-65
2023/09/29 12:31:18;;;;;;;4.15;1.95;;;;;;;;;;5043308;28;20027;-66
2023/09/29 12:33:45;;;;;;;5.55;2.08;;;;;;;;;;5049759;28;20024;-66
2023/09/29 12:36:10;;;;;;;6.35;2.30;;;;;;;;;;5072159;28;20054;-66
2023/09/29 12:38:36;;;;;;;4.93;2.40;;;;;;;;;;5048200;28;20016;-66
2023/09/29 12:41:01;;;;;;;6.85;2.05;;;;;;;;;;5070287;28;20147;-64
2023/09/29 12:43:26;;;;;;;7.65;2.40;;;;;;;;;;5052202;28;20816;-65
2023/09/29 12:45:51;;;;;;;6.17;2.20;;;;;;;;;;5050725;28;20035;-65
2023/09/29 12:48:17;;;;;;;7.77;2.33;;;;;;;;;;5047489;28;20020;-66
2023/09/29 12:50:43;;;;;;;3.97;2.03;;;;;;;;;;5044064;28;20336;-65
2023/09/29 12:53:08;;;;;;;4.43;2.17;;;;;;;;;;5049110;28;20150;-66
2023/09/29 12:55:34;;;;;;;4.97;1.83;;;;;;;;;;5055818;28;20023;-65
2023/09/29 12:58:06;;;;;;;4.90;2.03;;;;;;;;;;5050283;28;20034;-65
2023/09/29 13:00:34;;;;;;;8.23;2.30;;;;;;;;;;5044009;28;20071;-66
2023/09/29 13:03:04;;;;;;;6.32;2.40;;;;;;;;;;5047565;28;20028;-65
2023/09/29 13:05:30;;;;;;;4.43;2.00;;;;;;;;;;5041573;28;20024;-66
2023/09/29 13:07:56;;;;;;;5.55;2.38;;;;;;;;;;5038345;28;20039;-66
2023/09/29 13:10:22;;;;;;;6.18;2.33;;;;;;;;;;5033018;28;20722;-66
2023/09/29 13:12:51;;;;;;;6.15;2.30;;;;;;;;;;5041665;28;20090;-66
2023/09/29 13:15:16;;;;;;;6.25;2.83;;;;;;;;;;5048151;28;20070;-66
2023/09/29 13:17:42;;;;;;;6.25;2.08;;;;;;;;;;5048263;28;20832;-65
2023/09/29 13:20:07;;;;;;;4.68;2.13;;;;;;;;;;5049446;28;20933;-66
2023/09/29 13:22:33;;;;;;;6.85;2.58;;;;;;;;;;5049065;28;20866;-65
2023/09/29 13:24:58;;;;;;;5.03;2.15;;;;;;;;;;5047636;28;21431;-65
2023/09/29 13:27:23;;;;;;;4.85;2.03;;;;;;;;;;5044163;28;20047;-65
2023/09/29 13:29:50;;;;;;;3.23;1.80;;;;;;;;;;5045663;28;20593;-65
2023/09/29 13:32:15;;;;;;;6.50;2.90;;;;;;;;;;5050338;28;20335;-66
2023/09/29 13:34:40;;;;;;;8.15;2.25;;;;;;;;;;5048994;28;20020;-65
2023/09/29 13:37:06;;;;;;;5.03;2.38;;;;;;;;;;5048999;28;20031;-65
2023/09/29 13:39:32;;;;;;;5.57;2.38;;;;;;;;;;5047562;28;20137;-65
2023/09/29 13:41:57;;;;;;;10.80;2.83;;;;;;;;;;5040234;28;20020;-65
2023/09/29 13:44:23;;;;;;;7.63;2.42;;;;;;;;;;5047690;28;20055;-65
2023/09/29 13:46:48;;;;;;;6.22;2.30;;;;;;;;;;5040277;28;20907;-66
2023/09/29 13:49:13;;;;;;;5.75;2.15;;;;;;;;;;5040634;28;20035;-65
2023/09/29 13:51:39;;;;;;;7.70;2.25;;;;;;;;;;5026766;28;20024;-67
2023/09/29 13:54:04;;;;;;;4.55;1.95;;;;;;;;;;5034564;28;20029;-66
2023/09/29 13:56:30;;;;;;;4.55;2.13;;;;;;;;;;5040352;28;20024;-66
2023/09/29 13:58:55;;;;;;;4.70;2.03;;;;;;;;;;5041323;28;20131;-65
2023/09/29 14:01:21;;;;;;;4.72;2.25;;;;;;;;;;5039276;28;20325;-65
2023/09/29 14:03:46;;;;;;;5.30;2.50;;;;;;;;;;5047514;28;20032;-65
2023/09/29 14:06:15;;;;;;;3.83;2.50;;;;;;;;;;5053264;28;20128;-65
2023/09/29 14:08:41;;;;;;;3.63;2.17;;;;;;;;;;5045795;28;20019;-66
2023/09/29 14:11:06;;;;;;;5.95;2.67;;;;;;;;;;5048457;28;20024;-65
2023/09/29 14:13:31;;;;;;;4.93;2.23;;;;;;;;;;5048631;28;20827;-64
2023/09/29 14:15:57;;;;;;;5.28;2.83;;;;;;;;;;5046420;28;20286;-65
2023/09/29 14:18:22;;;;;;;4.67;2.53;;;;;;;;;;5051539;28;20475;-63
2023/09/29 14:20:47;;;;;;;6.40;2.80;;;;;;;;;;5049866;28;21183;-65
2023/09/29 14:23:12;;;;;;;4.90;3.20;;;;;;;;;;5042799;28;20028;-65
2023/09/29 14:25:38;;;;;;;5.63;3.10;;;;;;;;;;5053442;28;20070;-65
2023/09/29 14:28:04;;;;;;;3.72;2.55;;;;;;;;;;5055067;28;20118;-64
2023/09/29 14:30:30;;;;;;;5.03;2.20;;;;;;;;;;5036821;28;20020;-65
2023/09/29 14:32:55;;;;;;;4.70;1.75;;;;;;;;;;5042791;28;20031;-65
2023/09/29 14:35:21;;;;;;;5.40;1.73;;;;;;;;;;5036406;28;20024;-66
2023/09/29 14:37:48;;;;;;;4.47;2.00;;;;;;;;;;5037716;28;20222;-66
2023/09/29 14:40:13;;;;;;;5.05;2.13;;;;;;;;;;5029468;28;20293;-66